createdAt,value
2019-05-07T00:02:04.518Z,6.40
2019-05-07T00:07:09.135Z,6.83
2019-05-07T00:12:12.730Z,6.70
2019-05-07T00:17:16.455Z,6.90
2019-05-07T00:22:20.053Z,6.57
2019-05-07T00:27:24.146Z,6.53
2019-05-07T00:32:27.733Z,6.23
2019-05-07T00:37:36.090Z,6.93
2019-05-07T00:42:57.605Z,7.20
2019-05-07T00:48:02.908Z,6.57
2019-05-07T00:53:06.753Z,6.33
2019-05-07T00:58:13.105Z,7.03
2019-05-07T01:03:16.038Z,7.00
2019-05-07T01:08:22.325Z,7.83
2019-05-07T01:13:25.401Z,7.30
2019-05-07T01:18:29.062Z,6.80
2019-05-07T01:23:33.079Z,6.60
2019-05-07T01:28:54.562Z,7.00
2019-05-07T01:34:16.562Z,6.50
2019-05-07T01:39:20.162Z,7.03
2019-05-07T01:44:23.750Z,7.13
2019-05-07T01:49:27.724Z,6.83
2019-05-07T01:54:33.309Z,7.03
2019-05-07T01:59:36.609Z,7.40
2019-05-07T02:04:42.735Z,7.20
2019-05-07T02:09:48.522Z,7.50
2019-05-07T02:14:53.068Z,7.20
2019-05-07T02:19:56.852Z,6.60
2019-05-07T02:25:00.449Z,7.00
2019-05-07T02:30:05.252Z,7.23
2019-05-07T02:35:08.977Z,7.60
2019-05-07T02:40:26.594Z,7.20
2019-05-07T02:45:38.072Z,6.77
2019-05-07T02:50:43.875Z,7.13
2019-05-07T02:55:49.202Z,7.40
2019-05-07T03:00:53.302Z,7.13
2019-05-07T03:05:57.437Z,6.73
2019-05-07T03:11:03.328Z,7.60
2019-05-07T03:16:06.965Z,7.10
2019-05-07T03:21:18.146Z,7.40
2019-05-07T03:26:23.448Z,6.67
2019-05-07T03:31:29.184Z,7.47
2019-05-07T03:36:47.487Z,6.60
2019-05-07T03:41:49.543Z,6.60
2019-05-07T03:47:03.179Z,6.87
2019-05-07T03:52:04.543Z,6.70
2019-05-07T03:57:11.075Z,6.87
2019-05-07T04:02:14.453Z,7.57
2019-05-07T04:07:18.090Z,6.20
2019-05-07T04:12:23.976Z,7.03
2019-05-07T04:17:27.677Z,6.93
2019-05-07T04:22:34.294Z,6.63
2019-05-07T04:27:55.394Z,7.80
2019-05-07T04:33:03.596Z,7.67
2019-05-07T04:38:07.554Z,7.30
2019-05-07T04:43:13.604Z,7.83
2019-05-07T04:48:16.699Z,7.30
2019-05-07T04:53:23.355Z,7.93
2019-05-07T04:58:26.705Z,8.33
2019-05-07T05:03:30.421Z,8.30
2019-05-07T05:08:34.002Z,7.87
2019-05-07T05:13:38.037Z,8.57
2019-05-07T05:18:42.028Z,8.07
2019-05-07T05:23:53.218Z,8.33
2019-05-07T05:28:56.801Z,8.13
2019-05-07T05:34:02.181Z,8.30
2019-05-07T05:44:22.628Z,8.27
2019-05-07T05:49:25.566Z,7.60
2019-05-07T05:54:42.877Z,7.23
2019-05-07T05:59:52.107Z,7.50
2019-05-07T06:05:12.612Z,7.13
2019-05-07T06:10:23.765Z,7.63
2019-05-07T06:15:45.456Z,7.43
2019-05-07T06:20:53.482Z,8.33
2019-05-07T06:25:57.130Z,7.13
2019-05-07T06:31:02.172Z,7.13
2019-05-07T06:36:06.398Z,7.40
2019-05-07T06:41:17.521Z,7.47
2019-05-07T06:46:23.183Z,7.23
2019-05-07T06:51:26.473Z,7.43
2019-05-07T06:56:32.442Z,7.50
2019-05-07T07:01:37.393Z,7.63
2019-05-07T07:06:48.900Z,7.13
2019-05-07T07:11:54.230Z,7.30
2019-05-07T07:16:57.799Z,9.10
2019-05-07T07:22:02.387Z,9.00
2019-05-07T07:27:06.222Z,9.23
2019-05-07T07:32:12.756Z,8.70
2019-05-07T07:37:22.873Z,8.60
2019-05-07T07:42:26.139Z,8.30
2019-05-07T07:47:29.799Z,7.90
2019-05-07T07:52:33.390Z,9.17
2019-05-07T07:57:56.753Z,9.33
2019-05-07T08:03:02.308Z,10.23
2019-05-07T08:08:06.098Z,8.73
2019-05-07T08:13:12.155Z,8.83
2019-05-07T08:18:15.369Z,8.50
2019-05-07T08:23:18.998Z,8.33
2019-05-07T08:28:42.041Z,8.53
2019-05-07T08:33:59.065Z,8.80
2019-05-07T08:39:03.464Z,8.80
2019-05-07T08:44:14.687Z,7.97
2019-05-07T08:49:31.832Z,9.53
2019-05-07T08:54:24.821Z,8.97
2019-05-07T08:59:31.934Z,9.80
2019-05-07T09:04:35.936Z,8.67
2019-05-07T09:09:39.662Z,9.87
2019-05-07T09:14:43.220Z,9.67
2019-05-07T09:19:51.427Z,9.47
2019-05-07T09:24:52.806Z,8.73
2019-05-07T09:30:13.503Z,9.60
2019-05-07T09:35:18.861Z,8.70
2019-05-07T09:40:22.591Z,9.60
2019-05-07T09:45:26.377Z,8.10
2019-05-07T09:50:32.312Z,9.60
2019-05-07T09:55:35.194Z,10.30
2019-05-07T10:00:39.333Z,9.70
2019-05-07T10:05:43.164Z,10.47
2019-05-07T10:10:50.651Z,10.80
2019-05-07T10:15:54.549Z,11.53
2019-05-07T10:20:58.395Z,10.73
2019-05-07T10:26:02.144Z,10.17
2019-05-07T10:31:05.974Z,10.40
2019-05-07T10:36:09.710Z,11.30
2019-05-07T10:41:13.557Z,11.23
2019-05-07T10:46:24.716Z,9.33
2019-05-07T10:51:28.775Z,9.63
2019-05-07T10:56:32.742Z,7.83
2019-05-07T11:01:47.953Z,8.43
2019-05-07T11:06:52.412Z,8.53
2019-05-07T11:11:56.566Z,8.30
2019-05-07T11:17:13.853Z,6.87
2019-05-07T11:22:17.457Z,7.40
2019-05-07T11:27:22.518Z,7.03
2019-05-07T11:32:26.333Z,7.07
2019-05-07T11:37:29.924Z,7.50
2019-05-07T11:42:52.035Z,7.50
2019-05-07T11:47:55.795Z,6.50
2019-05-07T11:53:04.075Z,7.47
2019-05-07T11:58:07.733Z,6.30
2019-05-07T12:03:11.554Z,6.97
2019-05-07T12:08:15.213Z,6.97
2019-05-07T12:13:18.820Z,7.13
2019-05-07T12:18:22.954Z,6.60
2019-05-07T12:23:26.597Z,6.87
2019-05-07T12:28:30.786Z,7.63
2019-05-07T12:33:37.548Z,8.80
2019-05-07T12:38:41.754Z,7.97
2019-05-07T12:43:45.433Z,7.67
2019-05-07T12:48:49.477Z,7.80
2019-05-07T12:54:03.681Z,7.17
2019-05-07T12:59:08.339Z,7.50
2019-05-07T13:04:16.181Z,8.10
2019-05-07T13:09:22.003Z,7.40
2019-05-07T13:14:25.898Z,7.50
2019-05-07T13:19:29.570Z,7.87
2019-05-07T13:24:33.156Z,7.23
2019-05-07T13:29:37.203Z,9.23
2019-05-07T13:34:42.548Z,8.97
2019-05-07T13:39:48.086Z,8.00
2019-05-07T13:44:53.797Z,8.27
2019-05-07T13:49:57.662Z,9.07
2019-05-07T13:55:01.321Z,8.97
2019-05-07T14:00:09.694Z,9.27
2019-05-07T14:05:14.298Z,8.43
2019-05-07T14:10:18.879Z,9.63
2019-05-07T14:15:23.118Z,8.47
2019-05-07T14:20:27.113Z,8.40
2019-05-07T14:25:32.484Z,8.00
2019-05-07T14:30:36.246Z,8.80
2019-05-07T14:35:41.536Z,8.67
2019-05-07T14:40:45.197Z,9.37
2019-05-07T14:45:49.230Z,8.40
2019-05-07T14:50:53.119Z,8.90
2019-05-07T14:55:56.953Z,9.20
2019-05-07T15:01:02.418Z,10.53
2019-05-07T15:06:06.096Z,8.80
2019-05-07T15:11:09.927Z,9.17
2019-05-07T15:16:13.845Z,7.93
2019-05-07T15:21:17.511Z,8.60
2019-05-07T15:26:22.038Z,7.90
2019-05-07T15:31:36.386Z,7.77
2019-05-07T15:36:42.302Z,7.50
2019-05-07T15:41:45.788Z,6.87
2019-05-07T15:46:51.810Z,7.50
2019-05-07T15:51:56.619Z,7.17
2019-05-07T15:57:01.972Z,6.83
2019-05-07T16:02:12.248Z,7.00
2019-05-07T16:07:15.216Z,6.00
2019-05-07T16:12:22.660Z,7.30
2019-05-07T16:17:28.064Z,7.43
2019-05-07T16:22:33.292Z,7.33
2019-05-07T16:27:42.701Z,9.13
2019-05-07T16:32:46.297Z,22.87
2019-05-07T16:37:52.054Z,8.97
2019-05-07T16:42:55.569Z,19.43
2019-05-07T16:48:01.078Z,9.23
2019-05-07T16:53:04.529Z,6.07
2019-05-07T16:58:20.690Z,5.17
2019-05-07T17:03:25.617Z,5.47
2019-05-07T17:08:31.906Z,5.43
2019-05-07T17:13:35.636Z,5.90
2019-05-07T17:18:39.233Z,5.30
2019-05-07T17:23:44.663Z,5.47
2019-05-07T17:28:48.185Z,5.70
2019-05-07T17:33:51.774Z,5.57
2019-05-07T17:38:55.437Z,6.73
2019-05-07T17:43:59.223Z,7.27
2019-05-07T17:49:02.815Z,7.60
2019-05-07T17:54:06.760Z,7.27
2019-05-07T17:59:12.256Z,8.43
2019-05-07T18:04:15.989Z,6.47
2019-05-07T18:09:22.417Z,5.13
2019-05-07T18:14:25.786Z,5.07
2019-05-07T18:19:33.132Z,6.03
2019-05-07T18:24:36.713Z,5.40
2019-05-07T18:29:40.401Z,6.03
2019-05-07T18:34:44.051Z,7.40
2019-05-07T18:39:47.626Z,7.67
2019-05-07T18:44:52.481Z,5.57
2019-05-07T18:49:56.209Z,6.10
2019-05-07T18:55:02.558Z,6.70
2019-05-07T19:00:27.514Z,8.37
2019-05-07T19:05:31.723Z,9.10
2019-05-07T19:10:35.699Z,9.90
2019-05-07T19:15:41.865Z,6.40
2019-05-07T19:20:45.078Z,6.00
2019-05-07T19:25:48.683Z,5.90
2019-05-07T19:30:53.006Z,7.03
2019-05-07T19:35:56.617Z,10.17
2019-05-07T19:41:02.127Z,11.87
2019-05-07T19:46:05.969Z,14.13
2019-05-07T19:51:09.578Z,11.50
2019-05-07T19:56:21.868Z,8.60
2019-05-07T20:01:27.451Z,7.33
2019-05-07T20:06:32.433Z,6.20
2019-05-07T20:11:38.729Z,6.33
2019-05-07T20:16:42.854Z,7.33
2019-05-07T20:21:46.662Z,6.70
2019-05-07T20:26:52.457Z,7.20
2019-05-07T20:31:55.583Z,7.10
2019-05-07T20:36:59.244Z,6.83
2019-05-07T20:42:03.185Z,6.77
2019-05-07T20:47:07.050Z,6.13
2019-05-07T20:52:10.650Z,5.53
2019-05-07T20:57:22.446Z,5.37
2019-05-07T21:02:42.477Z,6.13
2019-05-07T21:07:35.681Z,6.93
2019-05-07T21:12:39.270Z,7.60
2019-05-07T21:17:42.950Z,7.47
2019-05-07T21:22:46.468Z,7.63
2019-05-07T21:27:52.975Z,7.20
2019-05-07T21:32:55.290Z,5.07
2019-05-07T21:37:59.261Z,4.77
2019-05-07T21:43:02.921Z,6.03
2019-05-07T21:48:06.512Z,5.13
2019-05-07T21:53:22.899Z,6.37
2019-05-07T21:58:33.912Z,7.00
2019-05-07T22:03:39.209Z,5.37
2019-05-07T22:08:42.873Z,4.57
2019-05-07T22:13:46.881Z,6.03
2019-05-07T22:18:52.197Z,4.90
2019-05-07T22:23:55.986Z,4.10
2019-05-07T22:28:59.903Z,3.37
2019-05-07T22:34:22.317Z,3.83
2019-05-07T22:39:26.202Z,4.27
2019-05-07T22:44:31.893Z,4.30
2019-05-07T22:49:35.033Z,3.70
2019-05-07T22:54:38.625Z,3.20
2019-05-07T22:59:43.281Z,3.60
2019-05-07T23:04:47.033Z,3.70
2019-05-07T23:09:52.241Z,3.30
2019-05-07T23:14:56.146Z,2.93
2019-05-07T23:19:59.938Z,3.27
2019-05-07T23:25:04.280Z,3.20
2019-05-07T23:30:08.104Z,3.43
2019-05-07T23:35:12.671Z,3.03
2019-05-07T23:40:20.221Z,3.17
2019-05-07T23:45:23.893Z,3.50
2019-05-07T23:50:27.873Z,3.40
2019-05-07T23:55:31.946Z,3.40
